Time;durP1;ratioP1;P1;durP2;ratioP2;P2;SDS_P1;SDS_P2;PMS_P1;PMS_P2;Temp;Humidity;BMP_temperature;BMP_pressure;BME280_temperature;BME280_humidity;BME280_pressure;Samples;Min_cycle;Max_cycle;Signal;HPM_P1;HPM_P2
2021/12/10 00:00:44;;;;;;;23.98;11.18;;;;;;;1.35;95.34;99719.50;5023199;28;20052;-74
2021/12/10 00:03:17;;;;;;;23.98;10.93;;;;;;;1.38;95.53;99709.47;5024628;28;20037;-75
2021/12/10 00:05:48;;;;;;;30.77;12.73;;;;;;;1.45;95.77;99713.59;5029591;28;20018;-74
2021/12/10 00:08:14;;;;;;;27.45;11.13;;;;;;;1.51;95.47;99713.25;5023930;28;20041;-74
2021/12/10 00:10:42;;;;;;;34.10;11.75;;;;;;;1.56;95.25;99698.75;5023955;28;20615;-74
2021/12/10 00:13:09;;;;;;;31.52;11.52;;;;;;;1.61;95.28;99688.63;5024592;28;20022;-74
2021/12/10 00:15:37;;;;;;;28.30;11.15;;;;;;;1.70;95.02;99690.81;5043608;28;20053;-75
2021/12/10 00:18:06;;;;;;;30.90;11.23;;;;;;;1.73;94.78;99677.25;5027314;28;20072;-70
2021/12/10 00:20:35;;;;;;;30.25;10.77;;;;;;;1.78;94.76;99667.13;5028675;28;20028;-74
2021/12/10 00:23:04;;;;;;;21.02;10.85;;;;;;;1.81;94.43;99668.75;5027942;28;20120;-74
2021/12/10 00:25:36;;;;;;;23.67;10.02;;;;;;;1.86;94.38;99661.31;5025499;28;20045;-71
2021/12/10 00:28:13;;;;;;;25.63;9.82;;;;;;;1.90;94.24;99665.56;5027582;28;20432;-71
2021/12/10 00:30:55;;;;;;;19.92;10.27;;;;;;;1.96;93.99;99643.78;5026737;28;20032;-74
2021/12/10 00:33:24;;;;;;;15.90;8.93;;;;;;;1.97;94.01;99640.16;5026366;28;20037;-74
2021/12/10 00:35:52;;;;;;;18.63;9.20;;;;;;;2.00;93.34;99629.22;5028371;28;20025;-71
2021/12/10 00:38:17;;;;;;;18.73;8.75;;;;;;;1.99;93.64;99635.56;5025483;28;20049;-71
2021/12/10 00:40:43;;;;;;;23.40;8.90;;;;;;;1.97;93.53;99624.91;5023492;28;20053;-75
2021/12/10 00:43:08;;;;;;;24.73;10.07;;;;;;;1.96;93.50;99615.16;5024535;28;20474;-75
2021/12/10 00:45:34;;;;;;;15.82;8.68;;;;;;;1.99;92.96;99604.22;5028566;28;20385;-76
2021/12/10 00:48:00;;;;;;;17.10;8.23;;;;;;;1.97;92.79;99608.81;5025657;28;20082;-76
2021/12/10 00:50:30;;;;;;;13.82;7.10;;;;;;;1.92;92.70;99594.81;5029404;28;20096;-74
2021/12/10 00:52:55;;;;;;;16.35;7.40;;;;;;;1.89;92.67;99591.44;5017337;28;20034;-72
2021/12/10 00:55:24;;;;;;;17.27;8.30;;;;;;;1.85;92.74;99587.19;5028827;28;20022;-74
2021/12/10 00:57:49;;;;;;;14.38;6.88;;;;;;;1.82;92.29;99584.69;5028133;28;20025;-70
2021/12/10 01:00:19;;;;;;;17.35;6.65;;;;;;;1.81;92.34;99577.59;5027486;28;20032;-75
2021/12/10 01:02:45;;;;;;;15.68;7.03;;;;;;;1.77;92.19;99567.06;5026327;28;20036;-75
2021/12/10 01:05:11;;;;;;;12.68;5.90;;;;;;;1.76;92.24;99557.28;5024348;28;20079;-72
2021/12/10 01:07:37;;;;;;;11.43;6.40;;;;;;;1.73;92.25;99556.59;5021743;28;20034;-74
2021/12/10 01:10:09;;;;;;;10.93;5.85;;;;;;;1.66;92.50;99541.81;5019550;28;20032;-75
2021/12/10 01:12:40;;;;;;;14.75;5.75;;;;;;;1.67;92.51;99536.34;5026788;28;20589;-74
2021/12/10 01:28:52;;;;;;;9.52;5.30;;;;;;;1.64;92.58;99500.84;5020302;28;20038;-75
2021/12/10 01:31:18;;;;;;;12.63;6.45;;;;;;;1.61;92.80;99484.91;5024126;28;20147;-74
2021/12/10 01:33:43;;;;;;;14.57;5.90;;;;;;;1.55;92.62;99480.78;5025708;28;20494;-74
2021/12/10 01:36:09;;;;;;;15.32;5.18;;;;;;;1.53;92.65;99483.53;5022596;28;20026;-71
2021/12/10 01:38:44;;;;;;;13.07;5.80;;;;;;;1.52;92.73;99470.22;5018870;28;20094;-75
2021/12/10 01:41:12;;;;;;;16.05;6.45;;;;;;;1.50;92.72;99467.66;5008001;28;20041;-74
2021/12/10 01:43:40;;;;;;;12.45;6.53;;;;;;;1.48;92.84;99455.28;5021775;28;20033;-74
2021/12/10 01:46:13;;;;;;;17.05;6.15;;;;;;;1.48;92.79;99452.59;5022484;28;20490;-74
2021/12/10 01:48:46;;;;;;;13.63;6.55;;;;;;;1.46;92.91;99458.06;5013569;28;20045;-74
2021/12/10 01:51:16;;;;;;;11.13;6.28;;;;;;;1.43;92.77;99447.50;5024526;28;20144;-75
2021/12/10 01:53:44;;;;;;;14.77;7.40;;;;;;;1.42;92.73;99448.47;5018738;28;20034;-74
2021/12/10 01:56:14;;;;;;;13.07;6.30;;;;;;;1.41;93.00;99435.16;5027850;28;20026;-74
2021/12/10 01:58:40;;;;;;;17.33;6.07;;;;;;;1.41;92.88;99440.53;5013882;28;20106;-75
2021/12/10 02:01:18;;;;;;;19.52;5.78;;;;;;;1.41;93.08;99436.03;5026790;28;20485;-74
2021/12/10 02:03:45;;;;;;;15.52;6.03;;;;;;;1.40;92.96;99436.97;5026339;28;20037;-74
2021/12/10 02:06:10;;;;;;;17.88;6.10;;;;;;;1.38;92.91;99429.97;5027665;28;20434;-74
2021/12/10 02:08:37;;;;;;;13.38;5.85;;;;;;;1.37;93.06;99431.78;5026197;28;20057;-75
2021/12/10 02:11:03;;;;;;;13.15;5.72;;;;;;;1.35;92.88;99424.78;5025195;28;20066;-76
2021/12/10 02:13:29;;;;;;;11.07;5.60;;;;;;;1.34;93.12;99420.38;5020427;28;20026;-74
2021/12/10 02:15:54;;;;;;;14.23;5.63;;;;;;;1.31;92.82;99409.84;5019352;28;20105;-74
2021/12/10 02:18:21;;;;;;;10.73;5.03;;;;;;;1.29;93.16;99409.94;5017446;28;20436;-75
2021/12/10 02:21:01;;;;;;;9.93;4.68;;;;;;;1.27;92.98;99403.81;5027582;28;20026;-70
2021/12/10 02:23:32;;;;;;;10.05;5.43;;;;;;;1.27;93.03;99403.81;5027398;28;20021;-74
2021/12/10 02:26:01;;;;;;;8.98;5.07;;;;;;;1.29;93.07;99396.53;5013261;28;20033;-74
2021/12/10 02:28:27;;;;;;;10.88;4.55;;;;;;;1.33;92.96;99383.84;5027482;28;20033;-75
2021/12/10 02:30:54;;;;;;;15.60;4.68;;;;;;;1.32;92.95;99376.75;5025231;28;20023;-75
2021/12/10 02:33:19;;;;;;;11.95;4.78;;;;;;;1.31;92.90;99373.22;5020724;28;20051;-74
2021/12/10 02:35:45;;;;;;;10.93;4.68;;;;;;;1.30;92.71;99365.25;5024840;28;20029;-74
2021/12/10 02:38:10;;;;;;;7.15;4.28;;;;;;;1.31;92.99;99362.50;5027168;28;20072;-74
2021/12/10 02:40:37;;;;;;;11.00;4.60;;;;;;;1.32;92.75;99356.19;5025806;28;20045;-74
2021/12/10 02:43:08;;;;;;;13.20;4.53;;;;;;;1.34;92.64;99356.09;5013122;28;20030;-70
2021/12/10 02:45:34;;;;;;;7.00;4.15;;;;;;;1.33;92.66;99340.97;5029220;28;20038;-71
2021/12/10 02:48:00;;;;;;;7.38;3.85;;;;;;;1.31;92.70;99342.88;5027270;28;20029;-74
2021/12/10 02:50:28;;;;;;;14.10;3.60;;;;;;;1.33;92.73;99325.75;5030725;28;20075;-74
2021/12/10 02:52:54;;;;;;;10.57;3.90;;;;;;;1.36;92.67;99336.31;5031024;28;20124;-74
2021/12/10 02:55:22;;;;;;;8.02;4.45;;;;;;;1.35;92.36;99323.81;5019421;28;20053;-74
2021/12/10 02:57:51;;;;;;;11.93;4.38;;;;;;;1.41;92.42;99328.00;5043238;28;20493;-76
2021/12/10 03:00:22;;;;;;;9.75;3.70;;;;;;;1.41;92.33;99320.81;5014730;28;20036;-76
2021/12/10 03:02:48;;;;;;;8.43;3.47;;;;;;;1.39;92.36;99303.94;5019764;28;20593;-75
2021/12/10 03:05:14;;;;;;;6.35;3.10;;;;;;;1.42;92.26;99306.44;5025617;28;20021;-70
2021/12/10 03:07:41;;;;;;;8.15;3.33;;;;;;;1.43;92.18;99299.28;5030184;28;20781;-75
2021/12/10 03:10:13;;;;;;;7.10;3.13;;;;;;;1.45;92.17;99297.38;5026469;28;20041;-75
2021/12/10 03:12:39;;;;;;;8.88;3.10;;;;;;;1.42;91.81;99287.69;5032344;28;20533;-75
2021/12/10 03:15:05;;;;;;;8.73;3.33;;;;;;;1.45;92.01;99290.19;5029784;28;20017;-72
2021/12/10 03:17:32;;;;;;;7.30;3.47;;;;;;;1.48;91.91;99287.31;5028059;28;20021;-73
2021/12/10 03:19:59;;;;;;;10.85;3.28;;;;;;;1.48;91.89;99279.28;5030661;28;20033;-74
2021/12/10 03:22:25;;;;;;;9.48;3.38;;;;;;;1.48;91.92;99281.97;5030356;28;20423;-75
2021/12/10 03:24:52;;;;;;;10.15;3.40;;;;;;;1.51;91.77;99272.88;5028662;28;20532;-75
2021/12/10 03:27:19;;;;;;;7.80;3.50;;;;;;;1.50;91.70;99265.81;5027415;28;20065;-71
2021/12/10 03:29:45;;;;;;;12.18;3.47;;;;;;;1.50;91.59;99268.50;5024750;28;20057;-75
2021/12/10 03:32:21;;;;;;;8.55;3.60;;;;;;;1.47;91.39;99260.63;5022502;28;20034;-75
2021/12/10 03:34:48;;;;;;;11.63;2.90;;;;;;;1.53;91.73;99266.47;5027562;28;20029;-71
2021/12/10 03:37:17;;;;;;;8.68;4.00;;;;;;;1.52;91.52;99256.69;5022070;28;20117;-75
2021/12/10 03:39:44;;;;;;;9.00;3.22;;;;;;;1.53;91.56;99260.25;5022115;28;20072;-76
2021/12/10 03:42:09;;;;;;;10.55;3.42;;;;;;;1.52;91.54;99245.97;5024516;28;20576;-75
2021/12/10 03:44:36;;;;;;;5.30;3.33;;;;;;;1.52;91.61;99248.66;5028479;28;20057;-74
2021/12/10 03:47:03;;;;;;;3.97;2.90;;;;;;;1.52;91.40;99247.81;5012124;28;20021;-70
2021/12/10 03:49:29;;;;;;;15.30;3.28;;;;;;;1.54;91.20;99232.50;5017746;28;20050;-76
2021/12/10 03:51:54;;;;;;;6.13;3.00;;;;;;;1.61;91.16;99228.47;5028685;28;20056;-72
2021/12/10 03:54:20;;;;;;;11.73;3.10;;;;;;;1.61;91.13;99231.16;5027610;28;20032;-72
2021/12/10 03:56:48;;;;;;;8.70;3.15;;;;;;;1.62;91.26;99234.69;5028611;28;20366;-73
2021/12/10 03:59:17;;;;;;;7.72;3.17;;;;;;;1.63;91.18;99221.22;5023125;28;20033;-75
2021/12/10 04:01:48;;;;;;;12.02;3.30;;;;;;;1.70;90.89;99224.38;5024941;28;20021;-74
2021/12/10 04:04:18;;;;;;;9.40;3.85;;;;;;;1.74;91.13;99229.44;5020250;28;20029;-75
2021/12/10 04:06:44;;;;;;;5.95;3.20;;;;;;;1.78;90.76;99217.59;5030195;28;20550;-74
2021/12/10 04:09:10;;;;;;;6.45;2.78;;;;;;;1.81;90.79;99207.63;5026731;28;20025;-74
2021/12/10 04:11:36;;;;;;;12.02;3.47;;;;;;;1.84;90.73;99205.59;5028207;28;20037;-74
2021/12/10 04:14:01;;;;;;;18.88;3.17;;;;;;;1.85;91.05;99199.28;5015025;28;20060;-75
2021/12/10 04:16:29;;;;;;;7.20;3.13;;;;;;;1.88;90.65;99198.25;5021956;28;20628;-74
2021/12/10 04:18:58;;;;;;;9.95;2.97;;;;;;;1.91;90.25;99179.25;5018035;28;20060;-70
2021/12/10 04:21:24;;;;;;;7.40;3.00;;;;;;;1.90;90.70;99178.41;5023918;28;20806;-74
2021/12/10 04:23:50;;;;;;;6.65;3.22;;;;;;;1.91;90.62;99172.09;5020173;28;20029;-71
2021/12/10 04:26:18;;;;;;;10.75;3.15;;;;;;;1.93;90.30;99169.31;5017477;28;20112;-75
2021/12/10 04:28:43;;;;;;;10.02;3.28;;;;;;;1.95;90.42;99162.88;5028542;28;20055;-74
2021/12/10 04:31:10;;;;;;;9.60;2.97;;;;;;;1.96;90.50;99161.94;5020864;28;20030;-76
2021/12/10 04:33:35;;;;;;;8.40;3.67;;;;;;;1.97;90.16;99152.06;5021512;28;20029;-70
2021/12/10 04:36:02;;;;;;;7.35;2.63;;;;;;;1.98;90.52;99154.63;5027697;28;20032;-74
2021/12/10 04:38:30;;;;;;;7.55;2.45;;;;;;;1.99;90.49;99136.72;5021252;28;20029;-75
2021/12/10 04:41:00;;;;;;;11.48;3.83;;;;;;;2.01;90.20;99137.50;5012270;28;20042;-71
2021/12/10 04:43:26;;;;;;;6.20;2.45;;;;;;;2.02;90.20;99123.97;5025446;28;20083;-74
2021/12/10 04:45:54;;;;;;;10.02;3.15;;;;;;;2.06;90.20;99116.59;5017688;28;20044;-74
2021/12/10 04:48:20;;;;;;;5.55;2.53;;;;;;;2.07;90.20;99110.28;5019399;28;20393;-72
2021/12/10 04:50:45;;;;;;;5.18;2.10;;;;;;;2.09;90.61;99104.78;5024924;28;20028;-74
2021/12/10 04:53:11;;;;;;;6.68;2.38;;;;;;;2.09;90.19;99096.75;5022118;28;20025;-74
2021/12/10 04:55:37;;;;;;;8.52;2.17;;;;;;;2.12;90.37;99099.25;5023751;28;20033;-71
2021/12/10 04:58:04;;;;;;;7.10;2.35;;;;;;;2.13;90.09;99092.91;5018048;28;20050;-75
2021/12/10 05:00:35;;;;;;;7.50;3.03;;;;;;;2.13;89.72;99082.19;5013334;28;20427;-75
2021/12/10 05:03:01;;;;;;;5.53;2.50;;;;;;;2.14;89.76;99082.06;5022729;28;20017;-75
2021/12/10 05:05:27;;;;;;;5.03;2.30;;;;;;;2.13;89.60;99075.00;5026539;28;20040;-75
2021/12/10 05:07:54;;;;;;;5.25;2.78;;;;;;;2.13;89.15;99074.13;5018110;28;20036;-75
2021/12/10 05:10:20;;;;;;;14.98;5.28;;;;;;;2.16;89.15;99068.56;5024799;28;20576;-75
2021/12/10 05:12:46;;;;;;;6.95;2.70;;;;;;;2.19;88.99;99068.34;5015081;28;20040;-75
2021/12/10 05:15:18;;;;;;;11.63;2.53;;;;;;;2.18;88.60;99062.13;5013100;28;20032;-74
2021/12/10 05:17:45;;;;;;;8.93;2.58;;;;;;;2.22;88.62;99062.78;5013074;28;20061;-75
2021/12/10 05:20:14;;;;;;;8.27;2.67;;;;;;;2.19;88.70;99061.19;5028021;28;20378;-71
2021/12/10 05:22:42;;;;;;;10.02;3.67;;;;;;;2.19;88.17;99060.31;5027901;28;20030;-75
2021/12/10 05:25:08;;;;;;;6.30;2.95;;;;;;;2.21;88.13;99066.44;5022883;28;20033;-75
2021/12/10 05:27:34;;;;;;;8.20;3.10;;;;;;;2.20;88.42;99052.19;5024522;28;20083;-74
2021/12/10 05:30:00;;;;;;;7.30;2.97;;;;;;;2.21;88.71;99059.25;5023236;28;20029;-74
2021/12/10 05:32:25;;;;;;;6.90;2.88;;;;;;;2.18;88.65;99051.41;5026191;28;20056;-70
2021/12/10 05:34:51;;;;;;;8.90;3.00;;;;;;;2.19;88.50;99053.16;5043300;28;20029;-75
2021/12/10 05:37:16;;;;;;;5.45;2.58;;;;;;;2.17;88.74;99057.72;5027905;28;20481;-74
2021/12/10 05:39:41;;;;;;;10.38;2.92;;;;;;;2.15;88.95;99048.09;5022957;28;20152;-75
2021/12/10 05:42:07;;;;;;;8.35;2.80;;;;;;;2.14;88.62;99041.84;5020496;28;20032;-74
2021/12/10 05:44:32;;;;;;;8.88;3.33;;;;;;;2.13;88.58;99031.22;5025502;28;20025;-70
2021/12/10 05:46:59;;;;;;;9.95;4.05;;;;;;;2.14;88.76;99030.25;5022829;28;20718;-74
2021/12/10 05:49:26;;;;;;;7.57;2.30;;;;;;;2.16;88.80;99033.72;5017509;28;20025;-74
2021/12/10 05:51:51;;;;;;;9.20;3.13;;;;;;;2.16;88.75;99028.34;5019552;28;20029;-75
2021/12/10 05:54:16;;;;;;;7.50;2.80;;;;;;;2.16;88.80;99023.84;5022870;28;20040;-75
2021/12/10 05:56:42;;;;;;;13.65;2.55;;;;;;;2.17;88.96;99033.59;5027633;28;20650;-75
2021/12/10 05:59:07;;;;;;;11.18;2.85;;;;;;;2.17;88.64;99036.28;5026011;28;20388;-75
2021/12/10 06:01:33;;;;;;;5.28;2.05;;;;;;;2.20;88.37;99024.50;5025291;28;20056;-74
2021/12/10 06:03:58;;;;;;;6.13;2.33;;;;;;;2.23;88.31;99027.81;5026190;28;20760;-70
2021/12/10 06:06:28;;;;;;;4.22;1.95;;;;;;;2.24;88.56;99034.06;5027608;28;20040;-75
2021/12/10 06:08:55;;;;;;;8.60;2.40;;;;;;;2.25;87.89;99022.34;5028155;28;20029;-75
2021/12/10 06:11:22;;;;;;;6.93;2.15;;;;;;;2.27;88.24;99023.97;5024893;28;20080;-70
2021/12/10 06:13:48;;;;;;;7.78;2.03;;;;;;;2.28;88.29;99022.13;5008563;28;20108;-76
2021/12/10 06:16:14;;;;;;;10.77;2.30;;;;;;;2.26;87.76;99014.19;5018270;28;20153;-76
2021/12/10 06:18:39;;;;;;;2.75;1.67;;;;;;;2.28;88.02;99014.06;5021672;28;20033;-74
2021/12/10 06:21:05;;;;;;;6.95;1.95;;;;;;;2.32;87.93;99014.75;5031390;28;20052;-74
2021/12/10 06:23:31;;;;;;;8.18;1.92;;;;;;;2.30;88.16;99018.41;5027321;28;20022;-75
2021/12/10 06:25:57;;;;;;;3.75;1.73;;;;;;;2.29;88.13;99005.09;5031130;28;20565;-73
2021/12/10 06:28:22;;;;;;;4.53;2.25;;;;;;;2.30;88.09;99013.03;5028220;28;20469;-75
2021/12/10 06:30:50;;;;;;;9.55;2.10;;;;;;;2.31;88.63;99008.50;5018146;28;20052;-75
2021/12/10 06:33:19;;;;;;;6.68;2.08;;;;;;;2.28;88.29;99011.41;5028495;28;20025;-74
2021/12/10 06:35:48;;;;;;;8.95;2.63;;;;;;;2.26;88.17;99008.84;5030820;28;20429;-75
2021/12/10 06:38:14;;;;;;;5.90;1.60;;;;;;;2.25;88.03;99014.31;5026398;28;20030;-74
2021/12/10 06:40:42;;;;;;;5.10;1.90;;;;;;;2.27;88.04;99007.00;5013744;28;20060;-71
2021/12/10 06:43:08;;;;;;;5.13;1.85;;;;;;;2.27;88.06;99010.53;5010556;28;20034;-74
2021/12/10 06:45:36;;;;;;;5.60;2.13;;;;;;;2.25;88.05;99000.91;5011205;28;20037;-71
2021/12/10 06:48:04;;;;;;;5.20;1.70;;;;;;;2.27;88.06;99013.22;5009997;28;20022;-71
2021/12/10 06:50:34;;;;;;;7.15;1.90;;;;;;;2.28;88.17;99012.28;5013616;28;20079;-74
2021/12/10 06:52:59;;;;;;;2.47;1.83;;;;;;;2.29;87.80;99014.00;5011495;28;20025;-73
2021/12/10 06:55:26;;;;;;;4.88;2.25;;;;;;;2.28;87.91;99014.06;5026829;28;20545;-74
2021/12/10 06:57:51;;;;;;;5.13;2.30;;;;;;;2.33;87.94;99017.31;5015249;28;20036;-75
2021/12/10 07:00:24;;;;;;;13.77;2.67;;;;;;;2.32;88.13;99022.78;5008475;28;20489;-75
2021/12/10 07:02:50;;;;;;;9.10;2.97;;;;;;;2.29;87.85;99018.50;5025646;28;20046;-72
2021/12/10 07:05:15;;;;;;;9.13;2.47;;;;;;;2.33;87.67;99022.66;5023236;28;20030;-75
2021/12/10 07:07:45;;;;;;;5.78;1.88;;;;;;;2.30;87.99;99013.03;5010083;28;20037;-75
2021/12/10 07:10:12;;;;;;;9.07;2.17;;;;;;;2.35;88.10;99015.41;5012264;28;20481;-75
2021/12/10 07:12:38;;;;;;;5.78;1.80;;;;;;;2.35;88.17;99014.53;5025067;28;20033;-72
2021/12/10 07:15:09;;;;;;;6.80;2.03;;;;;;;2.34;87.83;99011.00;5015205;28;20535;-75
2021/12/10 07:17:35;;;;;;;6.47;2.05;;;;;;;2.32;87.89;99015.59;5023117;28;20056;-74
2021/12/10 07:20:03;;;;;;;8.70;2.35;;;;;;;2.35;88.22;99019.91;5010095;28;20029;-71
2021/12/10 07:22:29;;;;;;;10.40;2.00;;;;;;;2.37;87.98;99021.50;5023474;28;20577;-75
2021/12/10 07:24:54;;;;;;;6.55;2.08;;;;;;;2.37;88.05;99015.28;5022390;28;20108;-75
2021/12/10 07:27:19;;;;;;;3.08;1.60;;;;;;;2.36;88.21;99011.75;5028665;28;20063;-71
2021/12/10 07:29:47;;;;;;;9.65;2.92;;;;;;;2.35;88.25;99007.34;5018142;28;20040;-72
2021/12/10 07:32:12;;;;;;;6.38;1.70;;;;;;;2.35;88.18;99009.16;5026577;28;20846;-75
2021/12/10 07:34:38;;;;;;;8.63;2.03;;;;;;;2.36;88.05;99008.19;5028807;28;20497;-75
2021/12/10 07:37:03;;;;;;;7.55;1.98;;;;;;;2.38;88.05;99017.00;5027034;28;20029;-71
2021/12/10 07:39:29;;;;;;;7.50;1.80;;;;;;;2.38;87.81;99006.25;5029565;28;20046;-72
2021/12/10 07:41:55;;;;;;;6.82;2.35;;;;;;;2.39;88.10;99006.19;5019758;28;20101;-75
2021/12/10 07:44:20;;;;;;;3.88;1.73;;;;;;;2.42;88.16;99002.41;5012599;28;20120;-75
2021/12/10 07:46:48;;;;;;;8.93;1.88;;;;;;;2.41;87.58;99008.75;5022258;28;20049;-74
2021/12/10 07:49:16;;;;;;;5.57;1.77;;;;;;;2.40;88.56;99007.88;5023933;28;20033;-73
2021/12/10 07:51:45;;;;;;;7.93;2.72;;;;;;;2.40;88.18;99009.72;5028611;28;20052;-71
2021/12/10 07:54:11;;;;;;;6.28;2.80;;;;;;;2.44;88.19;99008.53;5024240;28;20057;-75
2021/12/10 07:56:37;;;;;;;9.55;2.15;;;;;;;2.43;87.67;99012.19;5027671;28;20056;-72
2021/12/10 07:59:03;;;;;;;9.85;2.67;;;;;;;2.46;88.02;99015.50;5028619;28;20061;-74
2021/12/10 08:01:30;;;;;;;9.98;2.33;;;;;;;2.49;88.10;99017.13;5026839;28;20025;-74
2021/12/10 08:03:57;;;;;;;9.25;2.28;;;;;;;2.49;87.80;99020.69;5026291;28;20049;-74
2021/12/10 08:06:24;;;;;;;8.25;2.30;;;;;;;2.51;87.89;99020.56;5028488;28;20033;-73
2021/12/10 08:08:50;;;;;;;6.28;2.00;;;;;;;2.55;87.26;99022.94;5028313;28;20032;-74
2021/12/10 08:11:17;;;;;;;8.80;2.25;;;;;;;2.58;87.54;99021.03;5018154;28;20109;-75
2021/12/10 08:13:42;;;;;;;11.18;2.03;;;;;;;2.57;87.18;99012.09;5029422;28;20520;-75
2021/12/10 08:16:08;;;;;;;6.13;1.98;;;;;;;2.62;87.48;99023.38;5028029;28;20100;-75
2021/12/10 08:18:33;;;;;;;4.50;1.80;;;;;;;2.64;87.41;99020.59;5023434;28;20059;-75
2021/12/10 08:21:00;;;;;;;7.03;2.15;;;;;;;2.67;86.69;99023.06;5028744;28;20121;-75
2021/12/10 08:23:25;;;;;;;10.52;2.38;;;;;;;2.69;86.82;99018.44;5025938;28;20025;-75
2021/12/10 08:25:51;;;;;;;9.73;2.00;;;;;;;2.70;86.91;99022.84;5021202;28;20021;-75
2021/12/10 08:28:21;;;;;;;5.53;1.98;;;;;;;2.74;86.93;99021.66;5026733;28;20037;-71
2021/12/10 08:30:48;;;;;;;6.68;2.15;;;;;;;2.77;86.68;99026.81;5021829;28;20144;-75
2021/12/10 08:33:14;;;;;;;6.70;2.10;;;;;;;2.78;86.66;99023.16;5029705;28;20037;-75
2021/12/10 08:35:47;;;;;;;9.43;2.13;;;;;;;2.81;87.03;99018.44;5029207;28;20075;-75
2021/12/10 08:38:14;;;;;;;7.50;2.05;;;;;;;2.80;86.81;99019.41;5026425;28;20124;-75
2021/12/10 08:40:44;;;;;;;5.10;2.10;;;;;;;2.83;86.69;99015.66;5025938;28;20045;-75
2021/12/10 08:43:10;;;;;;;8.00;2.67;;;;;;;2.85;86.20;99021.78;5013332;28;20044;-71
2021/12/10 08:45:38;;;;;;;5.63;1.80;;;;;;;2.88;85.70;99023.38;5026067;28;20120;-75
2021/12/10 08:48:04;;;;;;;6.30;2.00;;;;;;;2.91;85.36;99025.84;5015801;28;20048;-75
2021/12/10 08:50:30;;;;;;;5.60;2.25;;;;;;;2.93;86.21;99019.41;5022973;28;20033;-75
2021/12/10 08:52:59;;;;;;;16.45;2.67;;;;;;;2.93;86.09;99027.44;5034625;28;20036;-75
2021/12/10 08:55:27;;;;;;;8.10;2.33;;;;;;;2.95;85.52;99027.38;5028113;28;20083;-75
2021/12/10 08:57:53;;;;;;;6.35;1.80;;;;;;;2.96;85.68;99018.34;5009810;28;20045;-74
2021/12/10 09:00:20;;;;;;;6.10;2.47;;;;;;;2.98;85.97;99019.94;5010888;28;20022;-75
2021/12/10 09:02:46;;;;;;;8.80;2.10;;;;;;;3.00;85.83;99014.47;5014211;28;20041;-74
2021/12/10 09:05:12;;;;;;;8.90;2.15;;;;;;;3.00;85.77;99014.47;5014900;28;20112;-75
2021/12/10 09:07:39;;;;;;;6.25;2.47;;;;;;;3.05;86.03;99017.69;5023618;28;20122;-71
2021/12/10 09:10:08;;;;;;;6.97;2.75;;;;;;;3.06;85.65;99022.94;5042109;28;20037;-75
2021/12/10 09:12:34;;;;;;;8.30;2.42;;;;;;;3.08;86.47;99028.22;5027806;28;20071;-72
2021/12/10 09:15:01;;;;;;;8.63;2.85;;;;;;;3.12;86.43;99031.53;5012295;28;20144;-75
2021/12/10 09:17:29;;;;;;;8.77;2.90;;;;;;;3.14;86.04;99032.28;5021705;28;20034;-74
2021/12/10 09:19:59;;;;;;;9.18;3.10;;;;;;;3.16;85.64;99035.72;5022890;28;20028;-75
2021/12/10 09:22:25;;;;;;;8.07;3.17;;;;;;;3.18;86.03;99033.78;5027917;28;20087;-74
2021/12/10 09:24:54;;;;;;;7.85;3.38;;;;;;;3.22;85.86;99033.47;5016961;28;20029;-75
2021/12/10 09:27:20;;;;;;;6.55;2.85;;;;;;;3.26;85.17;99036.78;5026057;28;20029;-75
2021/12/10 09:29:47;;;;;;;10.27;3.25;;;;;;;3.26;84.75;99034.97;5025310;28;20401;-75
2021/12/10 09:32:16;;;;;;;10.73;3.53;;;;;;;3.29;84.62;99036.56;5024496;28;20021;-75
2021/12/10 09:34:43;;;;;;;8.07;3.10;;;;;;;3.29;84.70;99028.50;5026067;28;20029;-75
2021/12/10 09:37:08;;;;;;;11.02;3.42;;;;;;;3.33;85.05;99040.75;5020410;28;20037;-74
2021/12/10 09:39:35;;;;;;;11.63;3.13;;;;;;;3.33;84.61;99038.06;5026980;28;20041;-71
2021/12/10 09:42:02;;;;;;;7.28;3.33;;;;;;;3.37;84.56;99039.56;5021407;28;20505;-72
2021/12/10 09:44:27;;;;;;;10.57;3.15;;;;;;;3.39;85.40;99043.00;5024573;28;20028;-74
2021/12/10 09:46:54;;;;;;;8.40;3.42;;;;;;;3.41;85.30;99034.84;5025599;28;20029;-75
2021/12/10 09:49:24;;;;;;;14.40;4.03;;;;;;;3.44;84.66;99037.28;5024029;28;20114;-75
2021/12/10 09:51:54;;;;;;;7.60;3.83;;;;;;;3.46;84.95;99040.75;5027077;28;20492;-72
2021/12/10 09:54:23;;;;;;;9.88;4.80;;;;;;;3.49;84.42;99040.50;5027233;28;20083;-75
2021/12/10 09:57:06;;;;;;;8.48;3.80;;;;;;;3.50;84.98;99048.47;5024712;28;20014;-75
2021/12/10 09:59:33;;;;;;;11.43;3.50;;;;;;;3.49;83.94;99037.81;5025842;28;20044;-74
2021/12/10 10:02:00;;;;;;;7.78;3.40;;;;;;;3.50;83.97;99037.72;5017960;28;20025;-72
2021/12/10 10:04:29;;;;;;;6.07;3.88;;;;;;;3.54;84.65;99041.91;5038997;28;20396;-74
2021/12/10 10:07:00;;;;;;;7.90;3.50;;;;;;;3.64;83.88;99044.78;5027049;28;20032;-75
2021/12/10 10:09:27;;;;;;;7.47;2.90;;;;;;;3.58;83.37;99050.59;5020588;28;20548;-74
2021/12/10 10:11:57;;;;;;;8.30;3.30;;;;;;;3.62;83.51;99053.91;5016265;28;20397;-74
2021/12/10 10:14:23;;;;;;;7.60;3.08;;;;;;;3.60;84.51;99051.34;5017155;28;20380;-76
2021/12/10 10:16:50;;;;;;;11.63;3.45;;;;;;;3.64;84.23;99050.16;5026063;28;20045;-75
2021/12/10 10:19:16;;;;;;;6.57;3.03;;;;;;;3.66;83.62;99050.03;5019824;28;20035;-73
2021/12/10 10:21:45;;;;;;;8.50;2.75;;;;;;;3.67;84.73;99046.38;5028254;28;20029;-71
2021/12/10 10:24:12;;;;;;;10.43;3.00;;;;;;;3.69;82.57;99047.13;5026982;28;20022;-75
2021/12/10 10:26:43;;;;;;;5.47;3.10;;;;;;;3.68;83.76;99035.50;5023626;28;20039;-71
2021/12/10 10:29:14;;;;;;;7.78;2.95;;;;;;;3.70;82.29;99044.31;5023308;28;20030;-75
2021/12/10 10:31:46;;;;;;;6.30;2.88;;;;;;;3.71;82.70;99051.41;5016912;28;20017;-75
2021/12/10 10:34:12;;;;;;;12.40;2.95;;;;;;;3.73;82.95;99045.91;5006893;28;20397;-76
2021/12/10 10:36:38;;;;;;;7.05;2.80;;;;;;;3.74;83.91;99045.81;5013234;28;20097;-75
2021/12/10 10:39:35;;;;;;;8.18;2.70;;;;;;;3.78;83.58;99050.00;5021004;28;20430;-75
2021/12/10 10:42:04;;;;;;;9.32;3.10;;;;;;;3.80;83.11;99047.19;5003340;28;20048;-75
2021/12/10 10:44:30;;;;;;;8.68;2.92;;;;;;;3.82;82.30;99047.94;5025161;28;20025;-74
2021/12/10 10:47:00;;;;;;;6.93;2.80;;;;;;;3.83;82.75;99050.53;5021628;28;20497;-74
2021/12/10 10:49:37;;;;;;;7.80;2.85;;;;;;;3.84;82.32;99052.22;5026158;28;20033;-72
2021/12/10 10:52:20;;;;;;;6.85;3.05;;;;;;;3.86;83.05;99046.72;5019902;28;20109;-75
2021/12/10 10:54:48;;;;;;;7.68;2.88;;;;;;;3.88;82.65;99054.72;5014877;28;20033;-71
2021/12/10 10:57:24;;;;;;;8.25;3.05;;;;;;;3.91;83.24;99051.78;5013235;28;20021;-71
2021/12/10 10:59:54;;;;;;;10.18;2.97;;;;;;;3.88;81.78;99060.94;5040934;28;20497;-75
2021/12/10 11:02:19;;;;;;;10.50;3.40;;;;;;;3.86;81.71;99056.63;5022555;28;20040;-75
2021/12/10 11:04:49;;;;;;;13.32;4.13;;;;;;;3.87;82.83;99055.66;5024358;28;20029;-72
2021/12/10 11:07:24;;;;;;;5.43;2.80;;;;;;;3.88;81.94;99065.47;5028643;28;20017;-75
2021/12/10 11:09:58;;;;;;;13.52;3.63;;;;;;;3.88;82.73;99058.25;5027965;28;20472;-72
2021/12/10 11:12:31;;;;;;;7.95;2.95;;;;;;;3.93;82.60;99064.16;5015717;28;20556;-71
2021/12/10 11:14:59;;;;;;;10.40;2.72;;;;;;;3.94;82.52;99062.31;5014315;28;20493;-75
2021/12/10 11:17:35;;;;;;;4.65;2.83;;;;;;;3.96;83.01;99061.22;5024627;28;20036;-75
2021/12/10 11:20:12;;;;;;;10.38;2.78;;;;;;;3.97;83.22;99062.97;5026803;28;20543;-71
2021/12/10 11:22:47;;;;;;;7.88;3.25;;;;;;;3.99;82.75;99068.22;5030080;28;20401;-73
2021/12/10 11:25:19;;;;;;;5.13;3.13;;;;;;;4.00;82.06;99070.78;5029517;28;20039;-75
2021/12/10 11:27:47;;;;;;;6.75;2.70;;;;;;;4.02;83.17;99068.84;5029697;28;20029;-75
2021/12/10 11:30:12;;;;;;;6.90;2.80;;;;;;;4.02;82.60;99065.31;5026253;28;20418;-72
2021/12/10 11:32:39;;;;;;;8.88;3.35;;;;;;;4.03;81.86;99067.03;5023162;28;20040;-71
2021/12/10 11:35:11;;;;;;;7.03;2.75;;;;;;;4.01;82.07;99069.84;5025805;28;20029;-75
2021/12/10 11:37:42;;;;;;;9.52;3.03;;;;;;;4.02;82.40;99076.94;5030586;28;20033;-74
2021/12/10 11:40:50;;;;;;;12.38;3.63;;;;;;;4.04;82.55;99066.03;5022267;28;20128;-73
2021/12/10 11:46:29;;;;;;;7.07;2.55;;;;;;;4.01;82.01;99080.59;5018913;28;20062;-73
2021/12/10 11:49:21;;;;;;;5.40;2.30;;;;;;;4.00;81.87;99083.38;5024904;28;20041;-75
2021/12/10 11:51:49;;;;;;;5.20;2.20;;;;;;;3.93;82.10;99088.38;5025717;28;20033;-75
2021/12/10 11:54:28;;;;;;;4.57;2.00;;;;;;;3.92;82.73;99085.78;5017624;28;20384;-72
2021/12/10 11:56:59;;;;;;;6.00;2.40;;;;;;;3.93;83.19;99090.19;5025916;28;20033;-75
2021/12/10 11:59:32;;;;;;;12.80;2.40;;;;;;;3.90;83.34;99085.88;5018102;28;20377;-74